sensor_id;sensor_type;location;lat;lon;timestamp;pressure;altitude;pressure_sealevel;temperature;humidity
69351;BME280;57106;51.446;-2.606;2023-07-24T00:02:21;100330.09;;;19.04;69.83
69351;BME280;57106;51.446;-2.606;2023-07-24T00:04:46;100332.04;;;18.95;69.61
69351;BME280;57106;51.446;-2.606;2023-07-24T00:07:11;100327.47;;;18.97;69.75
69351;BME280;57106;51.446;-2.606;2023-07-24T00:09:37;100328.79;;;18.97;69.60
69351;BME280;57106;51.446;-2.606;2023-07-24T00:12:05;100328.85;;;18.90;69.72
69351;BME280;57106;51.446;-2.606;2023-07-24T00:14:27;100326.79;;;18.99;70.16
69351;BME280;57106;51.446;-2.606;2023-07-24T00:16:53;100327.37;;;18.95;70.93
69351;BME280;57106;51.446;-2.606;2023-07-24T00:19:18;100326.37;;;18.98;70.71
69351;BME280;57106;51.446;-2.606;2023-07-24T00:21:43;100322.44;;;19.03;70.87
69351;BME280;57106;51.446;-2.606;2023-07-24T00:24:09;100320.83;;;19.05;70.76
69351;BME280;57106;51.446;-2.606;2023-07-24T00:26:35;100318.30;;;19.02;71.14
69351;BME280;57106;51.446;-2.606;2023-07-24T00:29:00;100318.04;;;18.97;71.41
69351;BME280;57106;51.446;-2.606;2023-07-24T00:31:30;100311.71;;;18.90;71.31
69351;BME280;57106;51.446;-2.606;2023-07-24T00:33:50;100312.38;;;19.03;71.11
69351;BME280;57106;51.446;-2.606;2023-07-24T00:36:16;100307.18;;;18.87;71.05
69351;BME280;57106;51.446;-2.606;2023-07-24T00:38:41;100306.32;;;19.07;70.78
69351;BME280;57106;51.446;-2.606;2023-07-24T00:41:06;100307.71;;;19.07;70.58
69351;BME280;57106;51.446;-2.606;2023-07-24T00:43:32;100308.04;;;19.01;71.05
69351;BME280;57106;51.446;-2.606;2023-07-24T00:45:57;100309.11;;;19.01;71.49
69351;BME280;57106;51.446;-2.606;2023-07-24T00:48:23;100310.49;;;18.99;71.30
69351;BME280;57106;51.446;-2.606;2023-07-24T00:50:49;100306.77;;;18.99;71.51
69351;BME280;57106;51.446;-2.606;2023-07-24T00:53:14;100300.92;;;18.98;71.52
69351;BME280;57106;51.446;-2.606;2023-07-24T00:55:40;100298.30;;;19.07;71.28
69351;BME280;57106;51.446;-2.606;2023-07-24T00:58:06;100291.99;;;18.98;71.72
69351;BME280;57106;51.446;-2.606;2023-07-24T01:00:29;100294.62;;;19.04;72.02
69351;BME280;57106;51.446;-2.606;2023-07-24T01:05:21;100290.32;;;19.19;70.52
69351;BME280;57106;51.446;-2.606;2023-07-24T01:10:11;100286.25;;;19.09;70.85
69351;BME280;57106;51.446;-2.606;2023-07-24T02:10:52;100249.96;;;18.74;71.99
69351;BME280;57106;51.446;-2.606;2023-07-24T02:22:51;100253.59;;;18.97;71.64
69351;BME280;57106;51.446;-2.606;2023-07-24T02:25:17;100254.41;;;18.96;71.58
69351;BME280;57106;51.446;-2.606;2023-07-24T02:27:42;100251.12;;;18.89;71.96
69351;BME280;57106;51.446;-2.606;2023-07-24T02:30:08;100253.17;;;18.80;72.27
69351;BME280;57106;51.446;-2.606;2023-07-24T02:32:33;100246.95;;;18.80;71.66
69351;BME280;57106;51.446;-2.606;2023-07-24T02:34:58;100247.01;;;18.62;72.51
69351;BME280;57106;51.446;-2.606;2023-07-24T02:37:24;100250.06;;;18.65;72.63
69351;BME280;57106;51.446;-2.606;2023-07-24T02:39:49;100248.16;;;18.55;72.60
69351;BME280;57106;51.446;-2.606;2023-07-24T02:42:14;100246.36;;;18.55;72.38
69351;BME280;57106;51.446;-2.606;2023-07-24T02:44:40;100243.43;;;18.59;72.42
69351;BME280;57106;51.446;-2.606;2023-07-24T02:47:05;100240.31;;;18.44;72.59
69351;BME280;57106;51.446;-2.606;2023-07-24T02:49:31;100239.31;;;18.33;73.12
69351;BME280;57106;51.446;-2.606;2023-07-24T02:51:56;100240.73;;;18.42;73.12
69351;BME280;57106;51.446;-2.606;2023-07-24T02:54:23;100243.97;;;18.27;73.53
69351;BME280;57106;51.446;-2.606;2023-07-24T02:56:47;100244.56;;;18.23;73.89
69351;BME280;57106;51.446;-2.606;2023-07-24T02:59:12;100245.84;;;18.27;73.61
69351;BME280;57106;51.446;-2.606;2023-07-24T03:01:37;100247.53;;;18.12;73.95
69351;BME280;57106;51.446;-2.606;2023-07-24T03:04:03;100248.50;;;18.12;74.14
69351;BME280;57106;51.446;-2.606;2023-07-24T03:06:28;100247.69;;;18.07;74.25
69351;BME280;57106;51.446;-2.606;2023-07-24T03:08:53;100248.02;;;18.07;74.59
69351;BME280;57106;51.446;-2.606;2023-07-24T03:11:19;100244.49;;;18.21;73.00
69351;BME280;57106;51.446;-2.606;2023-07-24T03:13:44;100246.65;;;17.96;73.96
69351;BME280;57106;51.446;-2.606;2023-07-24T03:16:10;100246.54;;;17.98;74.19
69351;BME280;57106;51.446;-2.606;2023-07-24T03:18:35;100247.05;;;18.04;73.47
69351;BME280;57106;51.446;-2.606;2023-07-24T03:21:04;100247.23;;;17.95;73.78
69351;BME280;57106;51.446;-2.606;2023-07-24T03:23:26;100249.03;;;18.03;73.28
69351;BME280;57106;51.446;-2.606;2023-07-24T03:25:51;100251.36;;;18.09;72.67
69351;BME280;57106;51.446;-2.606;2023-07-24T03:28:17;100252.77;;;17.78;73.43
69351;BME280;57106;51.446;-2.606;2023-07-24T03:30:42;100252.94;;;17.79;73.86
69351;BME280;57106;51.446;-2.606;2023-07-24T03:33:07;100253.48;;;17.77;73.79
69351;BME280;57106;51.446;-2.606;2023-07-24T03:35:33;100255.96;;;17.66;74.22
69351;BME280;57106;51.446;-2.606;2023-07-24T03:37:59;100252.23;;;17.64;74.35
69351;BME280;57106;51.446;-2.606;2023-07-24T03:40:24;100250.92;;;17.70;74.33
69351;BME280;57106;51.446;-2.606;2023-07-24T03:42:50;100256.36;;;17.66;74.15
69351;BME280;57106;51.446;-2.606;2023-07-24T03:45:14;100254.15;;;17.80;73.68
69351;BME280;57106;51.446;-2.606;2023-07-24T03:47:40;100257.94;;;17.68;74.18
69351;BME280;57106;51.446;-2.606;2023-07-24T03:50:06;100254.76;;;17.69;74.52
69351;BME280;57106;51.446;-2.606;2023-07-24T03:52:30;100255.37;;;17.73;73.76
69351;BME280;57106;51.446;-2.606;2023-07-24T03:54:56;100260.03;;;17.57;74.49
69351;BME280;57106;51.446;-2.606;2023-07-24T03:57:21;100257.38;;;17.57;74.58
69351;BME280;57106;51.446;-2.606;2023-07-24T03:59:47;100258.05;;;17.55;74.87
69351;BME280;57106;51.446;-2.606;2023-07-24T04:02:12;100255.69;;;17.58;74.35
69351;BME280;57106;51.446;-2.606;2023-07-24T04:04:38;100254.83;;;17.64;74.16
69351;BME280;57106;51.446;-2.606;2023-07-24T04:07:04;100255.84;;;17.64;74.10
69351;BME280;57106;51.446;-2.606;2023-07-24T04:09:28;100254.27;;;17.65;73.97
69351;BME280;57106;51.446;-2.606;2023-07-24T04:11:54;100256.13;;;17.62;73.90
69351;BME280;57106;51.446;-2.606;2023-07-24T04:14:19;100256.73;;;17.63;73.64
69351;BME280;57106;51.446;-2.606;2023-07-24T04:16:44;100257.96;;;17.63;73.38
69351;BME280;57106;51.446;-2.606;2023-07-24T04:19:10;100258.73;;;17.67;74.07
69351;BME280;57106;51.446;-2.606;2023-07-24T04:21:35;100258.06;;;17.80;73.58
69351;BME280;57106;51.446;-2.606;2023-07-24T04:24:01;100259.70;;;17.85;73.45
69351;BME280;57106;51.446;-2.606;2023-07-24T04:26:26;100261.00;;;17.93;72.78
69351;BME280;57106;51.446;-2.606;2023-07-24T04:28:51;100260.64;;;17.94;72.70
69351;BME280;57106;51.446;-2.606;2023-07-24T04:31:17;100260.72;;;17.84;73.12
69351;BME280;57106;51.446;-2.606;2023-07-24T04:33:42;100263.01;;;17.90;72.72
69351;BME280;57106;51.446;-2.606;2023-07-24T04:36:08;100266.49;;;17.91;72.90
69351;BME280;57106;51.446;-2.606;2023-07-24T04:38:33;100270.36;;;17.94;72.94
69351;BME280;57106;51.446;-2.606;2023-07-24T04:41:00;100270.65;;;18.01;72.82
69351;BME280;57106;51.446;-2.606;2023-07-24T04:43:24;100271.10;;;17.98;72.61
69351;BME280;57106;51.446;-2.606;2023-07-24T04:45:49;100269.73;;;18.03;72.55
69351;BME280;57106;51.446;-2.606;2023-07-24T04:48:20;100269.49;;;18.05;72.29
69351;BME280;57106;51.446;-2.606;2023-07-24T04:53:06;100276.28;;;18.01;71.65
69351;BME280;57106;51.446;-2.606;2023-07-24T04:57:57;100282.57;;;18.22;71.03
69351;BME280;57106;51.446;-2.606;2023-07-24T05:00:22;100281.22;;;18.28;71.06
69351;BME280;57106;51.446;-2.606;2023-07-24T05:02:47;100283.20;;;18.26;71.08
69351;BME280;57106;51.446;-2.606;2023-07-24T05:05:12;100284.02;;;18.17;71.49
69351;BME280;57106;51.446;-2.606;2023-07-24T05:07:38;100287.59;;;18.30;71.17
69351;BME280;57106;51.446;-2.606;2023-07-24T05:10:04;100291.14;;;18.37;70.78
69351;BME280;57106;51.446;-2.606;2023-07-24T05:12:29;100290.38;;;18.41;70.60
69351;BME280;57106;51.446;-2.606;2023-07-24T05:14:54;100294.03;;;18.23;70.70
69351;BME280;57106;51.446;-2.606;2023-07-24T05:17:19;100293.88;;;18.22;71.24
69351;BME280;57106;51.446;-2.606;2023-07-24T05:19:44;100298.22;;;18.27;71.24
69351;BME280;57106;51.446;-2.606;2023-07-24T05:22:10;100302.43;;;18.15;71.40
69351;BME280;57106;51.446;-2.606;2023-07-24T05:24:40;100302.60;;;18.26;71.10
69351;BME280;57106;51.446;-2.606;2023-07-24T05:27:01;100305.88;;;18.35;71.05
69351;BME280;57106;51.446;-2.606;2023-07-24T05:29:26;100306.83;;;18.27;72.31
69351;BME280;57106;51.446;-2.606;2023-07-24T05:31:52;100308.05;;;18.43;70.79
69351;BME280;57106;51.446;-2.606;2023-07-24T05:34:17;100308.58;;;18.42;71.58
69351;BME280;57106;51.446;-2.606;2023-07-24T05:36:42;100308.75;;;18.32;72.82
69351;BME280;57106;51.446;-2.606;2023-07-24T05:39:07;100309.00;;;18.40;72.65
69351;BME280;57106;51.446;-2.606;2023-07-24T05:41:33;100311.44;;;18.30;73.41
69351;BME280;57106;51.446;-2.606;2023-07-24T05:43:58;100312.03;;;18.24;73.95
69351;BME280;57106;51.446;-2.606;2023-07-24T05:46:23;100313.99;;;18.16;74.16
69351;BME280;57106;51.446;-2.606;2023-07-24T05:48:49;100320.82;;;18.09;74.38
69351;BME280;57106;51.446;-2.606;2023-07-24T05:51:17;100322.79;;;18.04;74.84
69351;BME280;57106;51.446;-2.606;2023-07-24T05:53:40;100323.25;;;18.19;75.00
69351;BME280;57106;51.446;-2.606;2023-07-24T05:56:05;100329.81;;;17.65;75.44
69351;BME280;57106;51.446;-2.606;2023-07-24T05:58:33;100334.36;;;17.98;74.79
69351;BME280;57106;51.446;-2.606;2023-07-24T06:00:56;100331.09;;;16.98;77.33
69351;BME280;57106;51.446;-2.606;2023-07-24T06:03:21;100336.46;;;16.81;78.23
69351;BME280;57106;51.446;-2.606;2023-07-24T06:05:51;100338.49;;;16.68;78.79
69351;BME280;57106;51.446;-2.606;2023-07-24T06:08:12;100339.56;;;16.27;81.30
69351;BME280;57106;51.446;-2.606;2023-07-24T06:10:37;100343.00;;;15.73;84.26
69351;BME280;57106;51.446;-2.606;2023-07-24T06:17:54;100345.31;;;15.83;85.65
69351;BME280;57106;51.446;-2.606;2023-07-24T06:20:21;100348.71;;;15.94;84.36
69351;BME280;57106;51.446;-2.606;2023-07-24T06:22:45;100354.18;;;15.79;84.82
69351;BME280;57106;51.446;-2.606;2023-07-24T06:25:11;100357.71;;;15.58;85.66
69351;BME280;57106;51.446;-2.606;2023-07-24T06:27:35;100360.15;;;15.58;86.00
69351;BME280;57106;51.446;-2.606;2023-07-24T06:30:01;100363.94;;;15.70;85.69
69351;BME280;57106;51.446;-2.606;2023-07-24T06:37:18;100365.81;;;15.77;85.60
69351;BME280;57106;51.446;-2.606;2023-07-24T06:39:43;100367.38;;;15.85;84.43
69351;BME280;57106;51.446;-2.606;2023-07-24T06:42:08;100369.50;;;15.79;85.14
69351;BME280;57106;51.446;-2.606;2023-07-24T06:44:33;100371.88;;;15.69;84.77
69351;BME280;57106;51.446;-2.606;2023-07-24T06:46:59;100378.99;;;15.80;84.28
69351;BME280;57106;51.446;-2.606;2023-07-24T06:49:24;100379.84;;;15.71;84.91
69351;BME280;57106;51.446;-2.606;2023-07-24T06:51:50;100387.14;;;15.58;84.70
69351;BME280;57106;51.446;-2.606;2023-07-24T06:54:20;100389.72;;;15.49;84.23
69351;BME280;57106;51.446;-2.606;2023-07-24T06:56:41;100384.06;;;15.45;84.44
69351;BME280;57106;51.446;-2.606;2023-07-24T06:59:06;100395.53;;;15.32;84.21
69351;BME280;57106;51.446;-2.606;2023-07-24T07:01:31;100392.80;;;15.29;83.60
69351;BME280;57106;51.446;-2.606;2023-07-24T07:03:57;100401.17;;;15.25;83.46
69351;BME280;57106;51.446;-2.606;2023-07-24T07:06:22;100399.04;;;15.04;84.03
69351;BME280;57106;51.446;-2.606;2023-07-24T07:08:48;100403.55;;;15.01;84.14
69351;BME280;57106;51.446;-2.606;2023-07-24T07:11:14;100397.43;;;15.16;84.00
69351;BME280;57106;51.446;-2.606;2023-07-24T07:13:39;100403.26;;;15.07;84.44
69351;BME280;57106;51.446;-2.606;2023-07-24T07:16:05;100408.66;;;15.17;84.14
69351;BME280;57106;51.446;-2.606;2023-07-24T07:18:30;100410.91;;;15.24;84.14
69351;BME280;57106;51.446;-2.606;2023-07-24T07:20:56;100415.45;;;15.20;83.04
69351;BME280;57106;51.446;-2.606;2023-07-24T07:23:21;100410.70;;;15.36;82.41
69351;BME280;57106;51.446;-2.606;2023-07-24T07:25:46;100417.21;;;15.39;82.55
69351;BME280;57106;51.446;-2.606;2023-07-24T07:28:11;100420.74;;;15.24;81.91
69351;BME280;57106;51.446;-2.606;2023-07-24T07:30:37;100433.94;;;15.34;81.84
69351;BME280;57106;51.446;-2.606;2023-07-24T07:33:02;100428.88;;;15.12;82.51
69351;BME280;57106;51.446;-2.606;2023-07-24T07:35:28;100435.47;;;15.15;82.92
69351;BME280;57106;51.446;-2.606;2023-07-24T07:37:53;100434.63;;;14.95;83.16
69351;BME280;57106;51.446;-2.606;2023-07-24T07:40:21;100438.31;;;14.91;83.36
69351;BME280;57106;51.446;-2.606;2023-07-24T07:42:50;100443.65;;;15.35;82.62
69351;BME280;57106;51.446;-2.606;2023-07-24T07:45:10;100436.67;;;15.06;82.97
69351;BME280;57106;51.446;-2.606;2023-07-24T07:47:35;100440.40;;;15.11;83.37
69351;BME280;57106;51.446;-2.606;2023-07-24T07:50:00;100440.10;;;15.08;83.51
69351;BME280;57106;51.446;-2.606;2023-07-24T07:52:26;100455.27;;;15.07;82.41
69351;BME280;57106;51.446;-2.606;2023-07-24T07:54:51;100451.54;;;15.01;83.12
69351;BME280;57106;51.446;-2.606;2023-07-24T07:57:17;100456.88;;;15.02;84.14
69351;BME280;57106;51.446;-2.606;2023-07-24T07:59:42;100454.36;;;15.32;82.94
69351;BME280;57106;51.446;-2.606;2023-07-24T08:02:08;100462.19;;;15.25;82.58
69351;BME280;57106;51.446;-2.606;2023-07-24T08:04:33;100466.93;;;15.18;83.34
69351;BME280;57106;51.446;-2.606;2023-07-24T08:06:58;100467.38;;;15.29;82.57
69351;BME280;57106;51.446;-2.606;2023-07-24T08:09:24;100468.18;;;15.19;82.34
69351;BME280;57106;51.446;-2.606;2023-07-24T08:11:50;100473.35;;;15.22;82.33
69351;BME280;57106;51.446;-2.606;2023-07-24T08:14:15;100476.19;;;15.32;81.84
69351;BME280;57106;51.446;-2.606;2023-07-24T08:16:40;100480.94;;;15.19;81.54
69351;BME280;57106;51.446;-2.606;2023-07-24T08:19:05;100482.33;;;15.26;81.54
69351;BME280;57106;51.446;-2.606;2023-07-24T08:21:31;100490.55;;;15.37;80.39
69351;BME280;57106;51.446;-2.606;2023-07-24T08:23:56;100499.26;;;15.27;80.69
69351;BME280;57106;51.446;-2.606;2023-07-24T08:26:22;100498.27;;;15.23;80.48
69351;BME280;57106;51.446;-2.606;2023-07-24T08:28:47;100501.46;;;15.36;80.69
69351;BME280;57106;51.446;-2.606;2023-07-24T08:31:13;100507.20;;;15.38;80.35
69351;BME280;57106;51.446;-2.606;2023-07-24T08:33:38;100507.22;;;15.20;80.52
69351;BME280;57106;51.446;-2.606;2023-07-24T08:36:05;100512.02;;;15.20;80.26
69351;BME280;57106;51.446;-2.606;2023-07-24T08:38:29;100508.98;;;15.37;80.47
69351;BME280;57106;51.446;-2.606;2023-07-24T08:41:06;100517.84;;;15.61;79.25
69351;BME280;57106;51.446;-2.606;2023-07-24T08:43:20;100519.77;;;15.67;78.76
69351;BME280;57106;51.446;-2.606;2023-07-24T08:45:46;100524.41;;;15.65;78.30
69351;BME280;57106;51.446;-2.606;2023-07-24T08:48:11;100528.05;;;15.52;78.35
69351;BME280;57106;51.446;-2.606;2023-07-24T08:50:36;100529.41;;;15.65;78.86
69351;BME280;57106;51.446;-2.606;2023-07-24T08:53:02;100534.16;;;15.94;77.86
69351;BME280;57106;51.446;-2.606;2023-07-24T08:55:28;100536.92;;;15.89;77.11
69351;BME280;57106;51.446;-2.606;2023-07-24T08:57:52;100542.26;;;15.77;77.38
69351;BME280;57106;51.446;-2.606;2023-07-24T09:00:18;100541.81;;;15.80;77.57
69351;BME280;57106;51.446;-2.606;2023-07-24T09:02:43;100542.42;;;16.05;77.26
69351;BME280;57106;51.446;-2.606;2023-07-24T09:05:09;100550.54;;;15.94;76.85
69351;BME280;57106;51.446;-2.606;2023-07-24T09:07:34;100549.13;;;15.48;78.05
69351;BME280;57106;51.446;-2.606;2023-07-24T09:10:00;100551.88;;;15.62;78.03
69351;BME280;57106;51.446;-2.606;2023-07-24T09:12:25;100553.04;;;15.52;78.75
69351;BME280;57106;51.446;-2.606;2023-07-24T09:15:01;100554.80;;;15.78;78.11
69351;BME280;57106;51.446;-2.606;2023-07-24T09:17:16;100556.59;;;15.98;77.85
69351;BME280;57106;51.446;-2.606;2023-07-24T09:19:41;100561.00;;;15.76;78.65
69351;BME280;57106;51.446;-2.606;2023-07-24T09:22:09;100563.40;;;16.00;77.11
69351;BME280;57106;51.446;-2.606;2023-07-24T09:24:32;100573.50;;;15.51;76.77
69351;BME280;57106;51.446;-2.606;2023-07-24T09:26:57;100569.41;;;15.52;77.83
69351;BME280;57106;51.446;-2.606;2023-07-24T09:29:30;100568.44;;;16.08;76.81
69351;BME280;57106;51.446;-2.606;2023-07-24T09:31:48;100575.75;;;16.28;75.29
69351;BME280;57106;51.446;-2.606;2023-07-24T09:34:16;100570.75;;;15.84;75.79
69351;BME280;57106;51.446;-2.606;2023-07-24T09:36:39;100576.18;;;15.77;76.08
69351;BME280;57106;51.446;-2.606;2023-07-24T09:39:05;100577.81;;;15.89;75.97
69351;BME280;57106;51.446;-2.606;2023-07-24T09:41:30;100579.22;;;16.20;75.68
69351;BME280;57106;51.446;-2.606;2023-07-24T09:43:58;100578.07;;;16.21;75.04
69351;BME280;57106;51.446;-2.606;2023-07-24T09:46:21;100578.74;;;15.86;75.20
69351;BME280;57106;51.446;-2.606;2023-07-24T09:48:46;100579.94;;;15.76;76.08
69351;BME280;57106;51.446;-2.606;2023-07-24T09:51:12;100586.26;;;15.64;76.18
69351;BME280;57106;51.446;-2.606;2023-07-24T09:53:43;100587.23;;;15.50;76.10
69351;BME280;57106;51.446;-2.606;2023-07-24T09:56:04;100589.02;;;15.51;76.42
69351;BME280;57106;51.446;-2.606;2023-07-24T09:58:28;100591.23;;;15.87;75.90
69351;BME280;57106;51.446;-2.606;2023-07-24T10:00:53;100596.89;;;16.10;75.07
69351;BME280;57106;51.446;-2.606;2023-07-24T10:03:20;100598.37;;;16.29;74.30
69351;BME280;57106;51.446;-2.606;2023-07-24T10:05:44;100602.88;;;16.23;73.46
69351;BME280;57106;51.446;-2.606;2023-07-24T10:08:10;100601.21;;;16.15;73.27
69351;BME280;57106;51.446;-2.606;2023-07-24T10:10:35;100604.13;;;16.19;73.35
69351;BME280;57106;51.446;-2.606;2023-07-24T10:13:00;100612.85;;;16.54;72.64
69351;BME280;57106;51.446;-2.606;2023-07-24T10:15:26;100610.61;;;16.27;72.61
69351;BME280;57106;51.446;-2.606;2023-07-24T10:18:01;100613.87;;;16.40;72.05
69351;BME280;57106;51.446;-2.606;2023-07-24T10:20:17;100619.20;;;16.43;71.71
69351;BME280;57106;51.446;-2.606;2023-07-24T10:22:42;100636.17;;;16.50;71.55
69351;BME280;57106;51.446;-2.606;2023-07-24T10:25:08;100623.72;;;16.06;72.47
69351;BME280;57106;51.446;-2.606;2023-07-24T10:27:36;100625.94;;;15.88;73.28
69351;BME280;57106;51.446;-2.606;2023-07-24T10:29:59;100629.00;;;16.11;72.22
69351;BME280;57106;51.446;-2.606;2023-07-24T10:32:24;100629.31;;;16.19;71.85
69351;BME280;57106;51.446;-2.606;2023-07-24T10:34:59;100630.75;;;16.53;71.34
69351;BME280;57106;51.446;-2.606;2023-07-24T10:37:16;100634.86;;;16.53;70.88
69351;BME280;57106;51.446;-2.606;2023-07-24T10:39:41;100638.51;;;16.79;70.15
69351;BME280;57106;51.446;-2.606;2023-07-24T10:42:07;100636.14;;;16.48;70.23
69351;BME280;57106;51.446;-2.606;2023-07-24T10:44:31;100636.68;;;16.76;69.67
69351;BME280;57106;51.446;-2.606;2023-07-24T10:46:56;100638.72;;;16.55;70.06
69351;BME280;57106;51.446;-2.606;2023-07-24T10:49:22;100645.77;;;16.70;68.82
69351;BME280;57106;51.446;-2.606;2023-07-24T10:51:47;100649.36;;;16.60;68.94
69351;BME280;57106;51.446;-2.606;2023-07-24T10:54:12;100643.03;;;16.76;68.92
69351;BME280;57106;51.446;-2.606;2023-07-24T10:56:38;100648.02;;;16.81;68.95
69351;BME280;57106;51.446;-2.606;2023-07-24T10:59:03;100650.47;;;17.03;67.74
69351;BME280;57106;51.446;-2.606;2023-07-24T11:01:30;100645.50;;;16.91;67.56
69351;BME280;57106;51.446;-2.606;2023-07-24T11:03:54;100654.42;;;17.18;66.87
69351;BME280;57106;51.446;-2.606;2023-07-24T11:23:17;100675.77;;;16.62;69.22
69351;BME280;57106;51.446;-2.606;2023-07-24T11:25:43;100681.35;;;16.80;68.25
69351;BME280;57106;51.446;-2.606;2023-07-24T11:33:00;100687.81;;;17.93;65.26
69351;BME280;57106;51.446;-2.606;2023-07-24T11:35:25;100688.12;;;17.68;65.20
69351;BME280;57106;51.446;-2.606;2023-07-24T11:37:49;100689.88;;;17.76;65.21
69351;BME280;57106;51.446;-2.606;2023-07-24T11:40:14;100686.31;;;17.86;65.16
69351;BME280;57106;51.446;-2.606;2023-07-24T11:42:43;100688.14;;;18.24;64.00
69351;BME280;57106;51.446;-2.606;2023-07-24T11:45:07;100690.45;;;17.86;64.23
69351;BME280;57106;51.446;-2.606;2023-07-24T11:47:31;100692.11;;;17.57;65.23
69351;BME280;57106;51.446;-2.606;2023-07-24T11:49:57;100690.18;;;17.33;66.28
69351;BME280;57106;51.446;-2.606;2023-07-24T11:52:22;100692.64;;;17.61;66.18
69351;BME280;57106;51.446;-2.606;2023-07-24T11:54:57;100692.21;;;17.51;66.35
69351;BME280;57106;51.446;-2.606;2023-07-24T11:57:15;100698.47;;;17.60;66.21
69351;BME280;57106;51.446;-2.606;2023-07-24T11:59:38;100706.41;;;17.50;66.76
69351;BME280;57106;51.446;-2.606;2023-07-24T12:02:06;100710.24;;;17.74;65.45
69351;BME280;57106;51.446;-2.606;2023-07-24T12:04:30;100711.84;;;17.76;65.93
69351;BME280;57106;51.446;-2.606;2023-07-24T12:06:54;100712.35;;;17.79;65.67
69351;BME280;57106;51.446;-2.606;2023-07-24T12:09:19;100715.34;;;17.56;65.64
69351;BME280;57106;51.446;-2.606;2023-07-24T12:11:45;100713.33;;;17.50;65.60
69351;BME280;57106;51.446;-2.606;2023-07-24T12:14:10;100723.18;;;17.91;65.32
69351;BME280;57106;51.446;-2.606;2023-07-24T12:16:35;100716.80;;;17.73;65.19
69351;BME280;57106;51.446;-2.606;2023-07-24T12:19:00;100727.39;;;17.62;65.07
69351;BME280;57106;51.446;-2.606;2023-07-24T12:21:26;100716.43;;;17.65;65.06
69351;BME280;57106;51.446;-2.606;2023-07-24T12:23:51;100719.71;;;18.02;65.13
69351;BME280;57106;51.446;-2.606;2023-07-24T12:26:16;100716.16;;;17.60;65.30
69351;BME280;57106;51.446;-2.606;2023-07-24T12:28:42;100717.07;;;17.90;64.96
69351;BME280;57106;51.446;-2.606;2023-07-24T12:31:07;100719.07;;;17.96;64.89
69351;BME280;57106;51.446;-2.606;2023-07-24T12:33:32;100728.90;;;17.75;64.82
69351;BME280;57106;51.446;-2.606;2023-07-24T12:35:58;100724.48;;;17.08;67.32
69351;BME280;57106;51.446;-2.606;2023-07-24T12:38:24;100725.38;;;17.09;67.72
69351;BME280;57106;51.446;-2.606;2023-07-24T12:40:49;100732.63;;;17.45;67.39
69351;BME280;57106;51.446;-2.606;2023-07-24T12:43:15;100735.06;;;17.00;68.18
69351;BME280;57106;51.446;-2.606;2023-07-24T12:45:39;100731.43;;;16.84;69.03
69351;BME280;57106;51.446;-2.606;2023-07-24T12:48:08;100726.09;;;16.93;69.14
69351;BME280;57106;51.446;-2.606;2023-07-24T12:50:31;100732.01;;;17.20;68.73
69351;BME280;57106;51.446;-2.606;2023-07-24T12:52:55;100735.02;;;17.55;67.34
69351;BME280;57106;51.446;-2.606;2023-07-24T12:57:46;100734.95;;;17.29;67.05
69351;BME280;57106;51.446;-2.606;2023-07-24T13:00:13;100748.02;;;17.34;66.94
69351;BME280;57106;51.446;-2.606;2023-07-24T13:02:37;100742.27;;;16.82;68.56
69351;BME280;57106;51.446;-2.606;2023-07-24T13:05:04;100737.50;;;17.00;68.57
69351;BME280;57106;51.446;-2.606;2023-07-24T13:07:28;100743.50;;;16.81;69.20
69351;BME280;57106;51.446;-2.606;2023-07-24T13:09:53;100745.81;;;16.83;69.84
69351;BME280;57106;51.446;-2.606;2023-07-24T13:12:19;100747.20;;;16.76;70.93
69351;BME280;57106;51.446;-2.606;2023-07-24T13:14:44;100752.69;;;16.72;71.83
69351;BME280;57106;51.446;-2.606;2023-07-24T13:17:10;100756.31;;;16.55;71.70
69351;BME280;57106;51.446;-2.606;2023-07-24T13:19:35;100754.70;;;16.58;70.81
69351;BME280;57106;51.446;-2.606;2023-07-24T13:22:00;100759.15;;;16.67;70.96
69351;BME280;57106;51.446;-2.606;2023-07-24T13:24:26;100759.63;;;16.74;70.48
69351;BME280;57106;51.446;-2.606;2023-07-24T13:26:51;100762.62;;;16.73;70.54
69351;BME280;57106;51.446;-2.606;2023-07-24T13:29:17;100764.62;;;16.55;72.38
69351;BME280;57106;51.446;-2.606;2023-07-24T13:31:42;100764.26;;;16.73;71.67
69351;BME280;57106;51.446;-2.606;2023-07-24T13:34:07;100776.51;;;16.94;70.87
69351;BME280;57106;51.446;-2.606;2023-07-24T13:36:33;100766.62;;;16.78;71.01
69351;BME280;57106;51.446;-2.606;2023-07-24T13:38:58;100759.91;;;17.12;69.69
69351;BME280;57106;51.446;-2.606;2023-07-24T13:41:24;100760.17;;;17.05;68.87
69351;BME280;57106;51.446;-2.606;2023-07-24T13:43:49;100759.79;;;17.19;67.96
69351;BME280;57106;51.446;-2.606;2023-07-24T13:46:14;100759.58;;;17.36;67.09
69351;BME280;57106;51.446;-2.606;2023-07-24T13:48:40;100762.13;;;17.73;66.64
69351;BME280;57106;51.446;-2.606;2023-07-24T13:51:05;100761.21;;;17.56;65.68
69351;BME280;57106;51.446;-2.606;2023-07-24T13:53:30;100762.69;;;17.82;66.22
69351;BME280;57106;51.446;-2.606;2023-07-24T13:55:56;100760.07;;;17.94;65.22
69351;BME280;57106;51.446;-2.606;2023-07-24T13:58:21;100765.54;;;17.75;65.52
69351;BME280;57106;51.446;-2.606;2023-07-24T14:00:47;100767.58;;;17.59;66.36
69351;BME280;57106;51.446;-2.606;2023-07-24T14:03:12;100776.06;;;17.29;68.59
69351;BME280;57106;51.446;-2.606;2023-07-24T14:05:37;100768.32;;;16.70;72.13
69351;BME280;57106;51.446;-2.606;2023-07-24T14:08:03;100771.16;;;16.63;73.34
69351;BME280;57106;51.446;-2.606;2023-07-24T14:10:28;100777.97;;;16.19;75.05
69351;BME280;57106;51.446;-2.606;2023-07-24T14:12:53;100787.81;;;15.95;76.13
69351;BME280;57106;51.446;-2.606;2023-07-24T14:15:19;100788.05;;;16.08;75.43
69351;BME280;57106;51.446;-2.606;2023-07-24T14:17:44;100784.64;;;16.02;74.81
69351;BME280;57106;51.446;-2.606;2023-07-24T14:20:10;100785.98;;;16.32;74.58
69351;BME280;57106;51.446;-2.606;2023-07-24T14:22:35;100783.89;;;16.70;73.65